createdAt,value
2022-09-07T00:09:23.764Z,85.35
2022-09-07T00:19:25.548Z,83.01
2022-09-07T00:29:27.416Z,82.15
2022-09-07T00:39:30.144Z,80.18
2022-09-07T00:49:33.382Z,80.76
2022-09-07T00:59:41.730Z,80.84
2022-09-07T01:09:46.878Z,79.97
2022-09-07T01:20:28.272Z,80.59
2022-09-07T01:30:35.142Z,82.25
2022-09-07T01:40:51.806Z,79.91
2022-09-07T01:51:00.024Z,79.70
2022-09-07T02:01:11.221Z,79.25
2022-09-07T02:11:39.736Z,79.70
2022-09-07T02:21:45.342Z,78.83
2022-09-07T02:31:47.550Z,79.38
2022-09-07T02:41:49.321Z,78.89
2022-09-07T02:51:59.050Z,78.82
2022-09-07T03:02:16.078Z,79.13
2022-09-07T03:12:18.051Z,78.21
2022-09-07T03:22:19.829Z,77.94
2022-09-07T03:32:21.585Z,77.05
2022-09-07T03:42:24.040Z,78.16
2022-09-07T03:52:25.801Z,78.50
2022-09-07T04:02:27.857Z,80.80
2022-09-07T04:12:29.945Z,81.83
2022-09-07T04:22:31.754Z,81.32
2022-09-07T04:32:33.771Z,81.69
2022-09-07T04:42:35.799Z,82.71
2022-09-07T04:52:37.691Z,82.12
2022-09-07T05:02:39.387Z,82.96
2022-09-07T05:12:41.105Z,82.65
2022-09-07T05:22:42.858Z,82.43
2022-09-07T05:32:46.207Z,82.30
2022-09-07T05:42:48.219Z,82.02
2022-09-07T05:52:50.292Z,81.97
2022-09-07T06:02:52.088Z,80.56
2022-09-07T06:12:54.155Z,79.22
2022-09-07T06:22:56.028Z,79.35
2022-09-07T06:32:57.944Z,78.30
2022-09-07T06:42:59.567Z,78.26
2022-09-07T07:03:26.545Z,75.88
2022-09-07T07:13:28.758Z,78.24
2022-09-07T07:23:30.973Z,76.18
2022-09-07T07:33:34.753Z,74.86
2022-09-07T07:43:36.602Z,72.46
2022-09-07T07:53:41.953Z,69.92
2022-09-07T08:03:49.559Z,70.23
2022-09-07T08:14:00.373Z,68.54
2022-09-07T08:24:03.801Z,69.92
2022-09-07T08:34:07.591Z,70.53
2022-09-07T08:44:37.825Z,69.49
2022-09-07T08:54:44.254Z,66.66
2022-09-07T09:15:31.036Z,65.59
2022-09-07T09:25:36.662Z,63.90
2022-09-07T09:35:39.760Z,63.27
2022-09-07T09:56:09.565Z,62.83
2022-09-07T10:06:16.328Z,63.06
2022-09-07T10:16:18.207Z,62.20
2022-09-07T10:26:29.639Z,62.76
2022-09-07T10:36:55.358Z,62.36
2022-09-07T10:47:06.791Z,62.65
2022-09-07T10:57:27.330Z,62.42
2022-09-07T11:07:48.101Z,59.35
2022-09-07T11:17:59.803Z,59.50
2022-09-07T11:28:27.784Z,57.16
2022-09-07T11:38:43.083Z,59.30
2022-09-07T11:48:56.185Z,57.81
2022-09-07T11:59:13.202Z,54.83
2022-09-07T12:09:33.092Z,56.64
2022-09-07T12:19:35.338Z,53.75
2022-09-07T12:29:37.450Z,49.11
2022-09-07T12:39:43.787Z,50.38
2022-09-07T12:50:28.418Z,46.55
2022-09-07T13:00:55.416Z,44.64
2022-09-07T13:11:16.635Z,46.03
2022-09-07T13:21:18.802Z,49.92
2022-09-07T13:31:33.456Z,45.91
2022-09-07T13:41:41.383Z,46.66
2022-09-07T13:51:52.253Z,45.20
2022-09-07T14:01:55.346Z,42.13
2022-09-07T14:11:57.154Z,40.51
2022-09-07T14:22:06.184Z,39.05
2022-09-07T14:32:13.388Z,38.42
2022-09-07T14:42:23.774Z,38.09
2022-09-07T14:52:42.374Z,37.30
2022-09-07T15:02:45.980Z,36.64
2022-09-07T15:12:54.476Z,38.85
2022-09-07T15:22:56.219Z,39.23
2022-09-07T15:32:58.133Z,37.99
2022-09-07T15:43:00.543Z,39.86
2022-09-07T15:53:03.139Z,40.76
2022-09-07T16:03:08.583Z,40.60
2022-09-07T16:13:12.098Z,40.80
2022-09-07T16:23:18.309Z,40.64
2022-09-07T16:33:20.130Z,40.79
2022-09-07T16:43:22.036Z,40.99
2022-09-07T16:53:24.013Z,41.08
2022-09-07T17:03:25.895Z,41.54
2022-09-07T17:13:28.388Z,41.81
2022-09-07T17:23:30.868Z,42.81
2022-09-07T17:33:33.850Z,42.98
2022-09-07T17:43:41.826Z,45.69
2022-09-07T17:53:46.995Z,44.92
2022-09-07T18:03:53.070Z,45.92
2022-09-07T18:13:56.159Z,46.16
2022-09-07T18:24:00.243Z,46.36
2022-09-07T18:34:01.869Z,47.26
2022-09-07T18:44:03.854Z,47.29
2022-09-07T18:54:07.551Z,47.00
2022-09-07T19:04:11.574Z,47.00
2022-09-07T19:14:13.167Z,47.72
2022-09-07T19:24:19.184Z,47.52
2022-09-07T19:34:21.295Z,48.19
2022-09-07T19:44:22.779Z,49.22
2022-09-07T19:54:24.313Z,48.98
2022-09-07T20:04:29.425Z,51.59
2022-09-07T20:14:31.310Z,53.26
2022-09-07T20:24:35.135Z,53.46
2022-09-07T20:34:37.606Z,51.91
2022-09-07T20:44:39.854Z,55.08
2022-09-07T20:54:41.400Z,55.71
2022-09-07T21:04:43.437Z,54.86
2022-09-07T21:14:46.132Z,56.43
2022-09-07T21:24:47.719Z,57.03
2022-09-07T21:34:49.451Z,57.83
2022-09-07T21:44:50.947Z,57.05
2022-09-07T21:54:52.558Z,59.72
2022-09-07T22:04:55.293Z,60.37
2022-09-07T22:14:59.657Z,59.17
2022-09-07T22:25:01.582Z,57.96
2022-09-07T22:35:06.195Z,57.04
2022-09-07T22:45:08.695Z,57.49
2022-09-07T22:55:10.417Z,61.33
2022-09-07T23:05:12.268Z,62.19
2022-09-07T23:15:14.180Z,61.93
2022-09-07T23:25:15.901Z,60.94
2022-09-07T23:35:17.471Z,60.59
2022-09-07T23:45:19.247Z,60.33
2022-09-07T23:55:21.214Z,62.33
